createdAt,value
2018-02-24T00:01:33.019Z,23.07
2018-02-24T00:04:01.727Z,22.07
2018-02-24T00:06:29.390Z,19.80
2018-02-24T00:08:57.439Z,24.10
2018-02-24T00:11:25.818Z,21.57
2018-02-24T00:13:54.413Z,20.93
2018-02-24T00:16:22.061Z,23.43
2018-02-24T00:18:49.857Z,23.60
2018-02-24T00:21:17.743Z,21.00
2018-02-24T00:23:45.385Z,23.13
2018-02-24T00:26:14.505Z,25.90
2018-02-24T00:28:43.911Z,24.60
2018-02-24T00:31:11.558Z,19.57
2018-02-24T00:33:39.319Z,22.83
2018-02-24T00:36:07.398Z,20.13
2018-02-24T00:38:35.113Z,24.43
2018-02-24T00:41:03.880Z,20.73
2018-02-24T00:43:32.248Z,20.87
2018-02-24T00:45:59.894Z,21.40
2018-02-24T00:48:27.699Z,23.23
2018-02-24T00:50:56.162Z,24.43
2018-02-24T00:53:25.154Z,20.70
2018-02-24T00:55:52.799Z,20.90
2018-02-24T00:58:23.292Z,21.20
2018-02-24T01:00:51.678Z,21.23
2018-02-24T01:03:19.336Z,20.30
2018-02-24T01:05:46.954Z,20.33
2018-02-24T01:08:18.627Z,23.07
2018-02-24T01:10:46.300Z,20.37
2018-02-24T01:13:13.955Z,19.47
2018-02-24T01:15:41.657Z,17.73
2018-02-24T01:18:09.306Z,19.33
2018-02-24T01:20:36.946Z,23.63
2018-02-24T01:23:04.605Z,25.83
2018-02-24T01:25:32.232Z,25.77
2018-02-24T01:28:00.638Z,22.10
2018-02-24T01:30:28.315Z,22.70
2018-02-24T01:32:55.975Z,22.33
2018-02-24T01:35:23.593Z,23.83
2018-02-24T01:37:52.020Z,21.07
2018-02-24T01:40:19.639Z,23.87
2018-02-24T01:42:48.126Z,22.33
2018-02-24T01:45:15.814Z,26.83
2018-02-24T01:47:43.431Z,17.40
2018-02-24T01:50:11.821Z,19.77
2018-02-24T01:52:39.500Z,20.33
2018-02-24T01:55:07.169Z,22.93
2018-02-24T01:57:34.766Z,21.00
2018-02-24T02:00:03.156Z,19.53
2018-02-24T02:02:31.530Z,18.17
2018-02-24T02:04:59.141Z,19.53
2018-02-24T02:07:26.828Z,19.50
2018-02-24T02:09:54.445Z,21.53
2018-02-24T02:12:22.068Z,17.47
2018-02-24T02:14:50.568Z,20.17
2018-02-24T02:17:19.082Z,23.90
2018-02-24T02:19:46.685Z,23.20
2018-02-24T02:22:14.342Z,20.97
2018-02-24T02:24:42.071Z,18.50
2018-02-24T02:27:09.664Z,20.40
2018-02-24T02:29:37.263Z,19.20
2018-02-24T02:32:04.908Z,23.57
2018-02-24T02:34:33.285Z,19.63
2018-02-24T02:37:01.669Z,18.77
2018-02-24T02:39:30.100Z,18.87
2018-02-24T02:41:57.714Z,17.40
2018-02-24T02:44:26.085Z,16.67
2018-02-24T02:46:54.513Z,19.77
2018-02-24T02:49:22.138Z,16.00
2018-02-24T02:51:49.757Z,21.80
2018-02-24T02:54:17.400Z,17.63
2018-02-24T02:56:45.011Z,16.43
2018-02-24T02:59:13.387Z,14.43
2018-02-24T03:01:41.780Z,19.63
2018-02-24T03:04:09.385Z,19.07
2018-02-24T03:06:37.039Z,20.53
2018-02-24T03:09:04.630Z,18.73
2018-02-24T03:11:33.000Z,16.33
2018-02-24T03:14:00.673Z,14.70
2018-02-24T03:16:29.042Z,15.73
2018-02-24T03:18:56.674Z,17.27
2018-02-24T03:21:24.302Z,16.67
2018-02-24T03:23:51.905Z,16.67
2018-02-24T03:26:19.499Z,16.77
2018-02-24T03:28:47.966Z,16.07
2018-02-24T03:31:15.574Z,16.77
2018-02-24T03:33:43.191Z,17.20
2018-02-24T03:36:11.596Z,15.37
2018-02-24T03:38:39.230Z,17.37
2018-02-24T03:41:07.655Z,14.70
2018-02-24T03:43:35.307Z,15.27
2018-02-24T03:46:05.470Z,13.77
2018-02-24T03:48:33.111Z,13.87
2018-02-24T03:51:00.727Z,16.13
2018-02-24T03:53:28.323Z,16.10
2018-02-24T03:55:56.074Z,14.47
2018-02-24T03:58:23.678Z,13.57
2018-02-24T04:00:51.285Z,14.20
2018-02-24T04:03:18.958Z,15.43
2018-02-24T04:05:46.567Z,15.53
2018-02-24T04:08:14.196Z,13.23
2018-02-24T04:10:41.815Z,14.33
2018-02-24T04:13:09.430Z,14.70
2018-02-24T04:15:37.041Z,14.90
2018-02-24T04:18:04.667Z,16.00
2018-02-24T04:20:33.042Z,16.53
2018-02-24T04:23:00.671Z,15.27
2018-02-24T04:25:28.314Z,15.10
2018-02-24T04:27:55.958Z,16.53
2018-02-24T04:30:23.589Z,15.37
2018-02-24T04:32:51.998Z,15.53
2018-02-24T04:35:19.661Z,13.83
2018-02-24T04:37:47.319Z,17.00
2018-02-24T04:40:14.922Z,17.27
2018-02-24T04:42:42.569Z,15.40
2018-02-24T04:45:10.210Z,17.13
2018-02-24T04:47:38.690Z,12.77
2018-02-24T04:50:06.430Z,15.53
2018-02-24T04:52:34.993Z,15.63
2018-02-24T04:55:03.381Z,15.43
2018-02-24T04:57:31.831Z,15.27
2018-02-24T04:59:59.434Z,14.00
2018-02-24T05:02:27.802Z,16.63
2018-02-24T05:04:56.220Z,17.67
2018-02-24T05:07:23.822Z,15.43
2018-02-24T05:09:51.440Z,14.93
2018-02-24T05:12:19.084Z,15.20
2018-02-24T05:14:46.703Z,13.77
2018-02-24T05:17:14.333Z,14.67
2018-02-24T05:19:42.780Z,16.17
2018-02-24T05:22:10.912Z,16.57
2018-02-24T05:24:39.873Z,14.30
2018-02-24T05:27:07.746Z,14.33
2018-02-24T05:29:35.791Z,12.80
2018-02-24T05:32:03.406Z,14.57
2018-02-24T05:34:31.828Z,11.67
2018-02-24T05:36:59.552Z,13.37
2018-02-24T05:39:27.929Z,13.33
2018-02-24T05:41:56.379Z,16.00
2018-02-24T05:44:24.030Z,14.27
2018-02-24T05:46:51.621Z,14.03
2018-02-24T05:49:19.267Z,13.77
2018-02-24T05:51:46.909Z,11.60
2018-02-24T05:54:14.509Z,14.87
2018-02-24T05:56:42.913Z,15.03
2018-02-24T05:59:10.734Z,13.10
2018-02-24T06:01:38.368Z,13.13
2018-02-24T06:04:05.977Z,11.30
2018-02-24T06:06:34.408Z,14.73
2018-02-24T06:09:02.065Z,12.67
2018-02-24T06:11:29.974Z,11.53
2018-02-24T06:13:58.385Z,13.97
2018-02-24T06:16:26.027Z,10.17
2018-02-24T06:18:54.430Z,7.80
2018-02-24T06:21:22.262Z,13.27
2018-02-24T06:23:50.655Z,10.67
2018-02-24T06:26:18.280Z,11.63
2018-02-24T06:28:47.461Z,10.17
2018-02-24T06:31:15.094Z,10.60
2018-02-24T06:33:42.742Z,10.00
2018-02-24T06:36:10.395Z,10.60
2018-02-24T06:38:38.033Z,10.53
2018-02-24T06:41:06.449Z,12.17
2018-02-24T06:43:34.083Z,13.10
2018-02-24T06:46:02.455Z,10.53
2018-02-24T06:48:30.859Z,10.67
2018-02-24T06:50:58.459Z,9.20
2018-02-24T06:53:26.059Z,9.73
2018-02-24T06:55:54.483Z,10.90
2018-02-24T06:58:22.090Z,9.37
2018-02-24T07:00:49.780Z,11.27
2018-02-24T07:03:17.398Z,13.67
2018-02-24T07:05:44.996Z,6.13
2018-02-24T07:08:12.645Z,6.83
2018-02-24T07:10:41.015Z,9.87
2018-02-24T07:13:09.436Z,8.43
2018-02-24T07:15:37.082Z,5.37
2018-02-24T07:18:05.408Z,3.80
2018-02-24T07:20:33.031Z,5.67
2018-02-24T07:23:01.275Z,8.93
2018-02-24T07:25:29.549Z,6.43
2018-02-24T07:27:57.933Z,5.23
2018-02-24T07:30:26.302Z,8.30
2018-02-24T07:32:54.768Z,4.57
2018-02-24T07:35:22.389Z,9.30
2018-02-24T07:37:50.020Z,8.17
2018-02-24T07:40:17.673Z,2.50
2018-02-24T07:42:45.279Z,4.07
2018-02-24T07:45:12.901Z,5.17
2018-02-24T07:47:40.554Z,4.13
2018-02-24T07:50:08.158Z,4.83
2018-02-24T07:52:35.830Z,4.83
2018-02-24T07:55:03.483Z,6.60
2018-02-24T07:57:31.135Z,5.60
2018-02-24T07:59:58.789Z,3.03
2018-02-24T08:02:26.434Z,6.30
2018-02-24T08:04:54.039Z,5.70
2018-02-24T08:07:21.673Z,5.27
2018-02-24T08:09:49.336Z,5.53
2018-02-24T08:12:16.943Z,3.70
2018-02-24T08:14:46.176Z,7.87
2018-02-24T08:17:13.829Z,5.83
2018-02-24T08:19:41.802Z,3.77
2018-02-24T08:22:10.204Z,3.80
2018-02-24T08:24:37.901Z,5.37
2018-02-24T08:27:06.386Z,3.63
2018-02-24T08:29:38.817Z,3.07
2018-02-24T08:32:16.097Z,5.63
2018-02-24T08:34:43.818Z,9.27
2018-02-24T08:37:11.725Z,3.20
2018-02-24T08:39:39.365Z,4.30
2018-02-24T08:42:07.029Z,9.17
2018-02-24T08:44:34.721Z,3.57
2018-02-24T08:47:03.325Z,4.33
2018-02-24T08:49:31.010Z,3.50
2018-02-24T08:51:59.364Z,6.27
2018-02-24T08:54:27.020Z,7.63
2018-02-24T08:56:54.642Z,10.97
2018-02-24T08:59:22.323Z,15.27
2018-02-24T09:01:49.968Z,4.70
2018-02-24T09:04:17.570Z,13.70
2018-02-24T09:06:47.283Z,5.83
2018-02-24T09:09:15.840Z,8.97
2018-02-24T09:14:19.042Z,6.73
2018-02-24T09:17:24.216Z,11.33
2018-02-24T09:19:52.850Z,8.77
2018-02-24T09:22:24.273Z,6.83
2018-02-24T09:24:55.580Z,5.57
2018-02-24T09:27:37.109Z,9.47
2018-02-24T09:30:06.341Z,6.93
2018-02-24T09:32:33.958Z,5.87
2018-02-24T09:35:01.619Z,8.60
2018-02-24T09:37:29.275Z,8.50
2018-02-24T09:39:57.665Z,4.60
2018-02-24T09:42:25.317Z,13.47
2018-02-24T09:44:53.690Z,8.97
2018-02-24T09:47:22.159Z,12.20
2018-02-24T09:49:50.554Z,4.87
2018-02-24T09:52:18.925Z,8.67
2018-02-24T09:54:47.288Z,6.10
2018-02-24T09:57:14.943Z,6.23
2018-02-24T09:59:42.558Z,12.77
2018-02-24T10:02:10.232Z,4.50
2018-02-24T10:04:37.878Z,10.50
2018-02-24T10:07:05.519Z,3.83
2018-02-24T10:09:33.120Z,8.43
2018-02-24T10:12:00.753Z,7.60
2018-02-24T10:14:28.372Z,4.53
2018-02-24T10:16:56.019Z,4.97
2018-02-24T10:19:23.650Z,5.37
2018-02-24T10:21:51.359Z,4.73
2018-02-24T10:24:19.038Z,2.80
2018-02-24T10:26:47.991Z,3.20
2018-02-24T10:29:15.680Z,3.00
2018-02-24T10:31:46.089Z,4.40
2018-02-24T10:34:13.764Z,2.53
2018-02-24T10:36:43.677Z,4.70
2018-02-24T10:39:16.092Z,4.50
2018-02-24T10:41:45.091Z,4.00
2018-02-24T10:46:48.154Z,6.77
2018-02-24T10:49:16.540Z,4.53
2018-02-24T10:51:44.930Z,3.07
2018-02-24T10:54:13.125Z,2.03
2018-02-24T10:56:40.770Z,5.53
2018-02-24T10:59:08.358Z,4.33
2018-02-24T11:01:36.211Z,5.70
2018-02-24T11:04:04.183Z,3.17
2018-02-24T11:06:31.803Z,3.00
2018-02-24T11:09:02.131Z,4.10
2018-02-24T11:11:30.223Z,4.30
2018-02-24T11:13:57.846Z,2.50
2018-02-24T11:16:26.283Z,4.40
2018-02-24T11:18:53.885Z,2.53
2018-02-24T11:21:22.493Z,6.50
2018-02-24T11:23:50.145Z,5.47
2018-02-24T11:26:17.809Z,3.43
2018-02-24T11:28:45.451Z,4.90
2018-02-24T11:31:13.897Z,3.93
2018-02-24T11:33:41.543Z,3.77
2018-02-24T11:36:09.212Z,3.93
2018-02-24T11:38:36.874Z,3.07
2018-02-24T11:41:04.511Z,11.93
2018-02-24T11:43:32.186Z,3.90
2018-02-24T11:45:59.824Z,5.37
2018-02-24T11:48:27.413Z,5.50
2018-02-24T11:50:56.042Z,3.63
2018-02-24T11:53:23.652Z,4.30
2018-02-24T11:55:51.269Z,5.03
2018-02-24T11:58:18.914Z,4.67
2018-02-24T12:00:47.357Z,6.30
2018-02-24T12:03:14.998Z,4.90
2018-02-24T12:05:43.496Z,9.07
2018-02-24T12:08:11.114Z,6.70
2018-02-24T12:10:39.070Z,5.83
2018-02-24T12:13:06.799Z,7.17
2018-02-24T12:15:34.438Z,4.80
2018-02-24T12:18:02.058Z,5.53
2018-02-24T12:20:30.451Z,7.50
2018-02-24T12:22:58.093Z,3.40
2018-02-24T12:25:27.095Z,3.37
2018-02-24T12:27:54.696Z,3.83
2018-02-24T12:30:22.374Z,3.27
2018-02-24T12:32:49.967Z,4.13
2018-02-24T12:35:18.320Z,4.17
2018-02-24T12:37:45.957Z,3.50
2018-02-24T12:40:13.590Z,6.53
2018-02-24T12:42:42.244Z,7.27
2018-02-24T12:45:10.783Z,5.27
2018-02-24T12:47:38.385Z,3.30
2018-02-24T12:50:06.799Z,5.77
2018-02-24T12:52:34.387Z,3.97
2018-02-24T12:55:02.009Z,6.00
2018-02-24T12:57:29.615Z,3.90
2018-02-24T12:59:57.991Z,4.23
2018-02-24T13:02:27.108Z,4.57
2018-02-24T13:04:55.464Z,7.73
2018-02-24T13:07:23.174Z,3.80
2018-02-24T13:09:50.770Z,5.73
2018-02-24T13:12:18.355Z,5.40
2018-02-24T13:14:45.986Z,4.37
2018-02-24T13:17:13.578Z,4.37
2018-02-24T13:19:41.159Z,5.40
2018-02-24T13:22:09.563Z,4.10
2018-02-24T13:24:37.166Z,3.70
2018-02-24T13:27:04.803Z,6.17
2018-02-24T13:29:33.861Z,7.87
2018-02-24T13:32:01.855Z,3.83
2018-02-24T13:34:30.993Z,4.83
2018-02-24T13:36:58.629Z,4.80
2018-02-24T13:39:26.215Z,5.33
2018-02-24T13:41:53.806Z,4.50
2018-02-24T13:44:21.415Z,4.93
2018-02-24T13:46:49.158Z,6.07
2018-02-24T13:52:17.918Z,5.70
2018-02-24T13:54:46.301Z,5.37
2018-02-24T13:57:14.668Z,4.40
2018-02-24T13:59:43.071Z,5.43
2018-02-24T14:02:10.759Z,7.73
2018-02-24T14:04:38.394Z,5.77
2018-02-24T14:07:05.979Z,5.00
2018-02-24T14:09:33.605Z,4.50
2018-02-24T14:12:01.981Z,5.97
2018-02-24T14:14:30.347Z,6.67
2018-02-24T14:16:58.765Z,6.47
2018-02-24T14:19:26.394Z,6.40
2018-02-24T14:21:54.770Z,4.90
2018-02-24T14:24:23.159Z,6.47
2018-02-24T14:26:50.737Z,5.10
2018-02-24T14:29:18.718Z,4.43
2018-02-24T14:31:46.324Z,6.53
2018-02-24T14:34:14.694Z,6.03
2018-02-24T14:36:42.308Z,4.00
2018-02-24T14:39:09.915Z,4.83
2018-02-24T14:41:37.544Z,6.90
2018-02-24T14:44:05.169Z,3.40
2018-02-24T14:46:32.790Z,4.07
2018-02-24T14:49:00.458Z,5.03
2018-02-24T14:51:28.045Z,4.57
2018-02-24T14:53:55.673Z,6.10
2018-02-24T14:56:23.349Z,7.20
2018-02-24T14:58:50.959Z,6.10
2018-02-24T15:01:18.724Z,6.83
2018-02-24T15:03:46.357Z,4.20
2018-02-24T15:06:13.951Z,5.33
2018-02-24T15:08:41.738Z,5.40
2018-02-24T15:11:10.232Z,3.63
2018-02-24T15:13:38.586Z,4.67
2018-02-24T15:16:06.206Z,5.23
2018-02-24T15:18:33.824Z,6.20
2018-02-24T15:21:02.239Z,4.70
2018-02-24T15:23:29.839Z,3.57
2018-02-24T15:25:57.773Z,4.03
2018-02-24T15:28:25.414Z,6.17
2018-02-24T15:30:53.035Z,4.33
2018-02-24T15:33:22.523Z,4.30
2018-02-24T15:35:50.199Z,4.50
2018-02-24T15:38:17.934Z,4.73
2018-02-24T15:40:45.519Z,4.43
2018-02-24T15:43:13.157Z,9.23
2018-02-24T15:45:40.764Z,5.37
2018-02-24T15:48:09.131Z,5.77
2018-02-24T15:50:36.784Z,6.57
2018-02-24T15:53:04.524Z,4.93
2018-02-24T15:55:32.154Z,3.70
2018-02-24T15:57:59.762Z,8.37
2018-02-24T16:00:27.412Z,4.50
2018-02-24T16:02:55.063Z,5.03
2018-02-24T16:05:22.695Z,5.77
2018-02-24T16:07:50.322Z,5.23
2018-02-24T16:10:18.022Z,5.03
2018-02-24T16:12:45.826Z,6.97
2018-02-24T16:15:13.492Z,4.10
2018-02-24T16:17:41.120Z,5.70
2018-02-24T16:20:08.706Z,4.67
2018-02-24T16:22:36.364Z,5.37
2018-02-24T16:25:04.003Z,6.27
2018-02-24T16:27:31.582Z,5.47
2018-02-24T16:29:59.201Z,4.93
2018-02-24T16:32:26.782Z,5.80
2018-02-24T16:34:54.364Z,6.37
2018-02-24T16:37:21.998Z,5.00
2018-02-24T16:39:49.611Z,5.57
2018-02-24T16:44:49.930Z,4.30
2018-02-24T16:47:17.627Z,5.93
2018-02-24T16:49:45.228Z,6.00
2018-02-24T16:52:12.850Z,4.37
2018-02-24T16:54:40.449Z,4.33
2018-02-24T16:57:08.063Z,4.83
2018-02-24T16:59:36.415Z,4.93
2018-02-24T17:02:05.546Z,4.43
2018-02-24T17:04:33.155Z,4.10
2018-02-24T17:07:00.782Z,6.23
2018-02-24T17:09:28.526Z,5.93
2018-02-24T17:11:56.133Z,6.93
2018-02-24T17:14:23.723Z,6.97
2018-02-24T17:16:52.106Z,5.83
2018-02-24T17:19:20.480Z,4.57
2018-02-24T17:21:48.887Z,6.27
2018-02-24T17:24:16.492Z,4.20
2018-02-24T17:26:44.107Z,4.77
2018-02-24T17:29:11.747Z,6.13
2018-02-24T17:31:40.115Z,5.37
2018-02-24T17:34:08.532Z,4.57
2018-02-24T17:36:36.154Z,5.10
2018-02-24T17:39:03.795Z,5.87
2018-02-24T17:41:31.428Z,5.57
2018-02-24T17:43:59.052Z,8.07
2018-02-24T17:46:26.657Z,5.10
2018-02-24T17:48:54.370Z,5.60
2018-02-24T17:51:21.968Z,6.50
2018-02-24T17:53:49.570Z,5.60
2018-02-24T17:56:17.966Z,6.20
2018-02-24T17:58:45.613Z,9.20
2018-02-24T18:01:13.984Z,5.17
2018-02-24T18:03:43.184Z,7.13
2018-02-24T18:06:11.564Z,7.47
2018-02-24T18:08:39.966Z,4.90
2018-02-24T18:11:07.626Z,5.47
2018-02-24T18:13:35.219Z,5.83
2018-02-24T18:16:02.860Z,8.27
2018-02-24T18:18:30.488Z,6.57
2018-02-24T18:20:58.866Z,7.43
2018-02-24T18:23:27.271Z,4.90
2018-02-24T18:25:54.862Z,5.60
2018-02-24T18:28:22.500Z,6.03
2018-02-24T18:30:50.159Z,6.23
2018-02-24T18:33:17.752Z,5.80
2018-02-24T18:35:46.132Z,4.80
2018-02-24T18:38:13.788Z,6.03
2018-02-24T18:40:41.436Z,7.13
2018-02-24T18:43:09.082Z,5.50
2018-02-24T18:45:36.754Z,5.67
2018-02-24T18:48:04.437Z,5.37
2018-02-24T18:50:32.040Z,5.40
2018-02-24T18:52:59.707Z,11.70
2018-02-24T18:55:27.315Z,5.80
2018-02-24T18:57:54.928Z,9.20
2018-02-24T19:00:22.575Z,5.17
2018-02-24T19:02:50.351Z,6.13
2018-02-24T19:05:17.973Z,8.47
2018-02-24T19:07:45.578Z,5.90
2018-02-24T19:10:13.200Z,6.00
2018-02-24T19:12:41.593Z,5.17
2018-02-24T19:15:09.946Z,6.80
2018-02-24T19:17:37.584Z,8.80
2018-02-24T19:20:05.248Z,10.03
2018-02-24T19:22:33.642Z,5.43
2018-02-24T19:25:01.308Z,9.03
2018-02-24T19:27:28.889Z,5.37
2018-02-24T19:29:56.501Z,8.20
2018-02-24T19:32:24.165Z,6.53
2018-02-24T19:34:52.170Z,5.90
2018-02-24T19:37:19.822Z,5.47
2018-02-24T19:39:47.640Z,6.73
2018-02-24T19:42:15.247Z,6.37
2018-02-24T19:44:42.942Z,7.70
2018-02-24T19:47:10.586Z,5.37
2018-02-24T19:49:39.034Z,6.93
2018-02-24T19:52:06.779Z,5.07
2018-02-24T19:54:34.539Z,5.37
2018-02-24T19:57:02.142Z,5.67
2018-02-24T19:59:30.686Z,7.03
2018-02-24T20:01:58.611Z,6.67
2018-02-24T20:04:26.987Z,7.17
2018-02-24T20:06:54.743Z,5.73
2018-02-24T20:09:23.199Z,6.70
2018-02-24T20:11:52.321Z,6.50
2018-02-24T20:14:20.708Z,5.20
2018-02-24T20:16:48.347Z,8.00
2018-02-24T20:19:16.731Z,5.23
2018-02-24T20:21:45.110Z,6.83
2018-02-24T20:24:13.534Z,6.03
2018-02-24T20:26:41.192Z,4.93
2018-02-24T20:29:08.809Z,9.67
2018-02-24T20:31:37.244Z,8.23
2018-02-24T20:34:04.893Z,6.73
2018-02-24T20:36:32.566Z,5.50
2018-02-24T20:39:00.203Z,7.77
2018-02-24T20:41:27.817Z,5.33
2018-02-24T20:43:56.181Z,7.07
2018-02-24T20:46:23.861Z,7.10
2018-02-24T20:48:52.351Z,6.73
2018-02-24T20:51:20.726Z,7.77
2018-02-24T20:53:49.251Z,8.30
2018-02-24T20:56:17.027Z,6.33
2018-02-24T20:58:44.889Z,8.87
2018-02-24T21:01:12.603Z,6.33
2018-02-24T21:03:40.234Z,7.80
2018-02-24T21:06:07.895Z,5.77
2018-02-24T21:08:35.727Z,8.33
2018-02-24T21:11:03.697Z,5.60
2018-02-24T21:13:31.546Z,7.03
2018-02-24T21:15:59.182Z,7.07
2018-02-24T21:18:27.696Z,6.30
2018-02-24T21:20:56.567Z,6.80
2018-02-24T21:23:24.326Z,5.30
2018-02-24T21:25:51.995Z,6.40
2018-02-24T21:28:19.599Z,6.30
2018-02-24T21:30:47.207Z,5.20
2018-02-24T21:33:14.847Z,6.10
2018-02-24T21:35:43.259Z,6.17
2018-02-24T21:38:10.910Z,7.83
2018-02-24T21:40:38.503Z,5.27
2018-02-24T21:43:06.261Z,5.50
2018-02-24T21:45:34.642Z,4.40
2018-02-24T21:48:03.210Z,6.30
2018-02-24T21:50:30.809Z,6.13
2018-02-24T21:52:58.546Z,5.10
2018-02-24T21:55:26.185Z,7.20
2018-02-24T21:57:53.821Z,6.07
2018-02-24T22:00:21.519Z,5.83
2018-02-24T22:02:49.123Z,5.37
2018-02-24T22:05:16.970Z,5.53
2018-02-24T22:07:45.362Z,10.53
2018-02-24T22:10:13.873Z,5.87
2018-02-24T22:12:41.571Z,5.90
2018-02-24T22:15:09.201Z,7.67
2018-02-24T22:17:36.819Z,4.87
2018-02-24T22:20:04.626Z,5.60
2018-02-24T22:22:32.249Z,6.37
2018-02-24T22:25:00.620Z,5.43
2018-02-24T22:27:28.258Z,9.07
2018-02-24T22:29:55.867Z,7.63
2018-02-24T22:32:24.229Z,5.13
2018-02-24T22:34:53.365Z,7.07
2018-02-24T22:37:20.957Z,6.17
2018-02-24T22:39:48.615Z,6.23
2018-02-24T22:42:16.346Z,6.57
2018-02-24T22:44:44.005Z,6.20
2018-02-24T22:47:11.610Z,5.93
2018-02-24T22:49:39.259Z,6.23
2018-02-24T22:52:06.915Z,8.93
2018-02-24T22:54:34.510Z,7.97
2018-02-24T22:57:03.560Z,7.27
2018-02-24T22:59:31.222Z,9.40
2018-02-24T23:01:58.815Z,6.27
2018-02-24T23:04:26.460Z,6.40
2018-02-24T23:06:54.096Z,7.73
2018-02-24T23:09:21.717Z,7.03
2018-02-24T23:11:50.103Z,8.30
2018-02-24T23:14:17.731Z,9.00
2018-02-24T23:16:45.372Z,6.50
2018-02-24T23:19:12.955Z,7.77
2018-02-24T23:21:40.562Z,5.53
2018-02-24T23:24:08.216Z,5.40
2018-02-24T23:26:35.824Z,7.87
2018-02-24T23:29:03.487Z,6.30
2018-02-24T23:31:31.127Z,5.53
2018-02-24T23:33:58.744Z,6.73
2018-02-24T23:36:27.171Z,5.57
2018-02-24T23:38:54.809Z,5.60
2018-02-24T23:41:22.398Z,6.90
2018-02-24T23:43:50.001Z,9.90
2018-02-24T23:46:18.428Z,6.53
2018-02-24T23:48:46.047Z,5.77
2018-02-24T23:51:13.746Z,8.60
2018-02-24T23:53:41.369Z,7.63
2018-02-24T23:56:08.988Z,6.03
2018-02-24T23:58:36.621Z,7.00
